createdAt,value
2019-01-05T00:00:15.124Z,16.97
2019-01-05T00:01:15.150Z,12.10
2019-01-05T00:02:09.664Z,15.10
2019-01-05T00:03:11.455Z,9.33
2019-01-05T00:04:03.414Z,11.12
2019-01-05T00:04:54.416Z,11.93
2019-01-05T00:05:58.481Z,15.78
2019-01-05T00:07:00.173Z,10.93
2019-01-05T00:07:51.521Z,10.15
2019-01-05T00:08:36.949Z,12.05
2019-01-05T00:09:35.666Z,11.08
2019-01-05T00:10:27.436Z,10.32
2019-01-05T00:11:18.866Z,10.40
2019-01-05T00:12:09.985Z,11.65
2019-01-05T00:13:05.297Z,13.60
2019-01-05T00:13:58.756Z,11.63
2019-01-05T00:14:59.560Z,10.80
2019-01-05T00:15:53.952Z,12.18
2019-01-05T00:16:45.399Z,31.57
2019-01-05T00:17:36.898Z,16.60
2019-01-05T00:18:47.825Z,11.05
2019-01-05T00:19:43.444Z,11.88
2019-01-05T00:20:36.767Z,11.60
2019-01-05T00:21:28.322Z,11.15
2019-01-05T00:22:29.717Z,14.40
2019-01-05T00:23:30.701Z,11.25
2019-01-05T00:24:23.418Z,11.15
2019-01-05T00:25:14.796Z,12.00
2019-01-05T00:26:13.306Z,11.55
2019-01-05T00:27:04.228Z,15.08
2019-01-05T00:27:55.309Z,12.25
2019-01-05T00:28:49.831Z,10.35
2019-01-05T00:29:43.100Z,10.03
2019-01-05T00:30:41.460Z,11.22
2019-01-05T00:31:27.448Z,12.45
2019-01-05T00:32:39.635Z,8.70
2019-01-05T00:33:35.615Z,9.93
2019-01-05T00:34:26.565Z,10.98
2019-01-05T00:35:17.842Z,9.38
2019-01-05T00:36:12.962Z,8.65
2019-01-05T00:37:15.478Z,9.28
2019-01-05T00:38:16.537Z,10.25
2019-01-05T00:39:08.172Z,10.48
2019-01-05T00:40:00.911Z,9.88
2019-01-05T00:41:05.929Z,8.35
2019-01-05T00:42:02.997Z,11.45
2019-01-05T00:42:58.331Z,10.20
2019-01-05T00:43:49.621Z,8.20
2019-01-05T00:44:40.716Z,8.55
2019-01-05T00:45:36.132Z,8.35
2019-01-05T00:46:31.579Z,10.25
2019-01-05T00:47:29.355Z,9.23
2019-01-05T00:48:21.031Z,11.40
2019-01-05T00:49:22.481Z,9.93
2019-01-05T00:50:13.811Z,11.93
2019-01-05T00:51:05.361Z,9.58
2019-01-05T00:52:03.498Z,7.87
2019-01-05T00:52:54.681Z,10.20
2019-01-05T00:53:53.350Z,11.22
2019-01-05T00:54:49.272Z,10.80
2019-01-05T00:55:42.249Z,9.35
2019-01-05T00:56:36.784Z,8.68
2019-01-05T00:57:35.544Z,10.13
2019-01-05T00:58:29.804Z,11.30
2019-01-05T00:59:37.881Z,9.38
2019-01-05T01:00:26.811Z,10.03
2019-01-05T01:01:25.589Z,12.88
2019-01-05T01:02:16.713Z,8.88
2019-01-05T01:03:09.473Z,13.90
2019-01-05T01:04:02.138Z,10.35
2019-01-05T01:04:53.794Z,9.35
2019-01-05T01:05:52.547Z,11.55
2019-01-05T01:06:45.729Z,9.55
2019-01-05T01:07:50.408Z,9.70
2019-01-05T01:08:45.886Z,8.73
2019-01-05T01:09:53.464Z,9.30
2019-01-05T01:10:47.196Z,8.00
2019-01-05T01:11:43.096Z,11.48
2019-01-05T01:12:54.919Z,11.55
2019-01-05T01:13:46.082Z,11.70
2019-01-05T01:14:41.524Z,7.87
2019-01-05T01:15:32.988Z,9.45
2019-01-05T01:16:26.185Z,11.00
2019-01-05T01:17:30.714Z,12.35
2019-01-05T01:18:36.670Z,7.60
2019-01-05T01:19:28.026Z,12.15
2019-01-05T01:20:15.244Z,8.55
2019-01-05T01:21:20.834Z,13.93
2019-01-05T01:22:16.571Z,10.08
2019-01-05T01:23:27.834Z,11.60
2019-01-05T01:24:16.526Z,8.90
2019-01-05T01:25:10.577Z,7.83
2019-01-05T01:26:21.775Z,9.00
2019-01-05T01:27:15.005Z,7.37
2019-01-05T01:28:06.559Z,10.03
2019-01-05T01:29:01.084Z,8.70
2019-01-05T01:29:52.396Z,13.30
2019-01-05T01:30:45.251Z,8.40
2019-01-05T01:31:40.949Z,10.45
2019-01-05T01:32:31.987Z,8.38
2019-01-05T01:33:26.722Z,10.38
2019-01-05T01:34:29.941Z,12.23
2019-01-05T01:35:21.126Z,8.15
2019-01-05T01:36:11.977Z,12.13
2019-01-05T01:37:04.368Z,8.20
2019-01-05T01:38:31.001Z,7.37
2019-01-05T01:39:36.891Z,8.93
2019-01-05T01:40:20.832Z,8.90
2019-01-05T01:41:14.580Z,11.33
2019-01-05T01:42:16.384Z,9.45
2019-01-05T01:43:11.879Z,9.03
2019-01-05T01:44:03.327Z,8.05
2019-01-05T01:45:05.307Z,8.38
2019-01-05T01:46:02.830Z,7.08
2019-01-05T01:46:56.261Z,7.53
2019-01-05T01:47:48.414Z,9.70
2019-01-05T01:48:39.503Z,18.52
2019-01-05T01:50:54.028Z,7.35
2019-01-05T01:51:58.836Z,10.53
2019-01-05T01:52:57.989Z,6.17
2019-01-05T01:54:02.856Z,8.75
2019-01-05T01:54:54.774Z,6.97
2019-01-05T01:55:50.908Z,6.95
2019-01-05T01:56:43.605Z,5.75
2019-01-05T01:57:36.730Z,7.35
2019-01-05T01:58:32.464Z,9.85
2019-01-05T01:59:38.301Z,5.83
2019-01-05T02:00:30.231Z,7.83
2019-01-05T02:01:30.296Z,5.40
2019-01-05T02:02:14.140Z,5.70
2019-01-05T02:03:06.321Z,5.75
2019-01-05T02:04:16.842Z,9.58
2019-01-05T02:05:05.747Z,4.00
2019-01-05T02:05:59.393Z,3.27
2019-01-05T02:07:08.453Z,6.53
2019-01-05T02:08:08.619Z,4.67
2019-01-05T02:09:07.379Z,3.83
2019-01-05T02:09:56.126Z,4.40
2019-01-05T02:10:56.092Z,4.47
2019-01-05T02:11:56.876Z,4.65
2019-01-05T02:12:53.092Z,3.40
2019-01-05T02:13:44.012Z,4.92
2019-01-05T02:14:39.653Z,3.95
2019-01-05T02:15:31.218Z,4.58
2019-01-05T02:16:25.783Z,4.92
2019-01-05T02:17:35.966Z,5.25
2019-01-05T02:18:32.937Z,3.65
2019-01-05T02:19:38.932Z,4.28
2019-01-05T02:20:31.625Z,4.87
2019-01-05T02:21:28.926Z,4.12
2019-01-05T02:22:33.454Z,3.52
2019-01-05T02:23:41.985Z,6.50
2019-01-05T02:24:48.363Z,3.05
2019-01-05T02:25:49.723Z,3.20
2019-01-05T02:27:08.979Z,3.75
2019-01-05T02:28:17.202Z,3.40
2019-01-05T02:29:29.188Z,4.33
2019-01-05T02:30:49.859Z,2.67
2019-01-05T02:31:58.652Z,3.10
2019-01-05T02:32:58.273Z,2.85
2019-01-05T02:34:12.257Z,2.45
2019-01-05T02:35:16.471Z,2.87
2019-01-05T02:36:25.576Z,3.60
2019-01-05T02:37:29.168Z,2.90
2019-01-05T02:38:31.313Z,2.60
2019-01-05T02:39:27.563Z,2.72
2019-01-05T02:40:29.897Z,2.35
2019-01-05T02:41:38.413Z,3.90
2019-01-05T02:42:49.438Z,2.50
2019-01-05T02:44:03.371Z,3.15
2019-01-05T02:45:12.212Z,2.87
2019-01-05T02:46:26.751Z,2.58
2019-01-05T02:47:45.315Z,2.90
2019-01-05T02:48:41.685Z,3.75
2019-01-05T02:49:50.661Z,2.75
2019-01-05T02:50:42.818Z,3.05
2019-01-05T02:52:27.329Z,2.45
2019-01-05T02:53:41.084Z,2.87
2019-01-05T02:54:48.958Z,3.10
2019-01-05T02:55:52.085Z,2.52
2019-01-05T02:56:59.174Z,1.98
2019-01-05T02:58:15.241Z,1.80
2019-01-05T02:59:29.534Z,1.85
2019-01-05T03:01:01.626Z,2.00
2019-01-05T03:02:04.070Z,2.00
2019-01-05T03:03:12.875Z,1.50
2019-01-05T03:04:30.963Z,1.90
2019-01-05T03:05:42.108Z,2.75
2019-01-05T03:06:55.353Z,1.90
2019-01-05T03:08:04.962Z,2.40
2019-01-05T03:09:17.688Z,3.25
2019-01-05T03:10:22.341Z,1.60
2019-01-05T03:11:40.850Z,2.17
2019-01-05T03:12:58.697Z,2.10
2019-01-05T03:14:14.569Z,1.90
2019-01-05T03:15:34.975Z,2.10
2019-01-05T03:16:26.744Z,1.85
2019-01-05T03:17:42.706Z,1.80
2019-01-05T03:18:55.351Z,1.87
2019-01-05T03:20:18.516Z,1.82
2019-01-05T03:21:21.929Z,3.87
2019-01-05T03:22:35.045Z,1.50
2019-01-05T03:23:32.350Z,3.15
2019-01-05T03:25:04.613Z,2.17
2019-01-05T03:26:44.185Z,1.90
2019-01-05T03:27:45.440Z,2.70
2019-01-05T03:28:59.965Z,1.80
2019-01-05T03:30:00.149Z,2.52
2019-01-05T03:31:11.660Z,1.65
2019-01-05T03:32:22.054Z,1.77
2019-01-05T03:33:26.522Z,1.50
2019-01-05T03:34:34.120Z,2.30
2019-01-05T03:35:54.078Z,1.67
2019-01-05T03:37:11.878Z,1.95
2019-01-05T03:38:24.952Z,3.10
2019-01-05T03:39:20.576Z,1.75
2019-01-05T03:40:53.060Z,1.60
2019-01-05T03:42:04.702Z,1.65
2019-01-05T03:43:28.298Z,2.35
2019-01-05T03:44:30.285Z,2.62
2019-01-05T03:45:55.391Z,1.85
2019-01-05T03:47:15.997Z,2.95
2019-01-05T03:48:25.024Z,2.55
2019-01-05T03:49:40.976Z,3.10
2019-01-05T03:50:50.842Z,1.65
2019-01-05T03:51:50.417Z,2.02
2019-01-05T03:53:09.555Z,2.60
2019-01-05T03:54:16.331Z,4.10
2019-01-05T03:55:57.859Z,1.80
2019-01-05T03:56:59.689Z,2.22
2019-01-05T03:58:12.830Z,1.62
2019-01-05T03:59:16.158Z,1.82
2019-01-05T04:00:29.434Z,2.15
2019-01-05T04:01:32.683Z,2.22
2019-01-05T04:02:38.800Z,2.62
2019-01-05T04:03:49.529Z,2.87
2019-01-05T04:05:24.187Z,3.75
2019-01-05T04:06:34.199Z,2.35
2019-01-05T04:07:43.338Z,2.92
2019-01-05T04:08:55.403Z,2.60
2019-01-05T04:10:10.857Z,3.45
2019-01-05T04:11:37.021Z,2.50
2019-01-05T04:12:48.864Z,2.12
2019-01-05T04:14:01.775Z,1.90
2019-01-05T04:15:16.253Z,2.70
2019-01-05T04:16:41.499Z,1.60
2019-01-05T04:18:14.089Z,2.42
2019-01-05T04:19:34.550Z,2.72
2019-01-05T04:20:55.013Z,2.52
2019-01-05T04:22:27.340Z,3.05
2019-01-05T04:23:38.292Z,3.77
2019-01-05T04:24:49.049Z,4.22
2019-01-05T04:25:50.294Z,3.02
2019-01-05T04:27:03.153Z,2.45
2019-01-05T04:28:18.487Z,3.77
2019-01-05T04:29:26.155Z,3.77
2019-01-05T04:30:26.745Z,3.02
2019-01-05T04:31:37.591Z,3.12
2019-01-05T04:32:48.237Z,2.62
2019-01-05T04:34:11.424Z,6.03
2019-01-05T04:35:19.522Z,4.05
2019-01-05T04:36:31.508Z,2.77
2019-01-05T04:37:50.780Z,3.00
2019-01-05T04:39:10.905Z,5.72
2019-01-05T04:40:21.072Z,6.78
2019-01-05T04:41:34.133Z,3.12
2019-01-05T04:42:28.365Z,3.55
2019-01-05T04:43:39.237Z,6.10
2019-01-05T04:44:52.406Z,7.45
2019-01-05T04:46:09.157Z,4.45
2019-01-05T04:47:41.785Z,4.97
2019-01-05T04:48:55.455Z,3.52
2019-01-05T04:50:22.225Z,4.33
2019-01-05T04:51:31.260Z,5.85
2019-01-05T04:52:51.184Z,4.37
2019-01-05T04:53:54.801Z,4.60
2019-01-05T04:55:22.916Z,3.55
2019-01-05T04:56:43.414Z,3.22
2019-01-05T04:57:52.202Z,3.65
2019-01-05T04:59:04.672Z,5.55
2019-01-05T05:00:07.036Z,7.35
2019-01-05T05:01:21.066Z,4.20
2019-01-05T05:02:37.940Z,7.35
2019-01-05T05:03:50.822Z,4.55
2019-01-05T05:05:16.495Z,3.10
2019-01-05T05:06:25.027Z,6.12
2019-01-05T05:07:32.302Z,6.37
2019-01-05T05:08:53.220Z,8.18
2019-01-05T05:10:20.696Z,4.75
2019-01-05T05:11:32.917Z,4.62
2019-01-05T05:12:40.974Z,8.80
2019-01-05T05:13:46.463Z,3.95
2019-01-05T05:14:59.760Z,4.08
2019-01-05T05:16:15.514Z,4.67
2019-01-05T05:17:42.052Z,4.35
2019-01-05T05:19:05.285Z,6.03
2019-01-05T05:20:14.116Z,7.15
2019-01-05T05:21:46.512Z,4.15
2019-01-05T05:22:52.544Z,5.42
2019-01-05T05:24:03.026Z,4.03
2019-01-05T05:25:16.013Z,4.08
2019-01-05T05:26:50.524Z,5.33
2019-01-05T05:28:09.358Z,4.08
2019-01-05T05:29:28.265Z,4.62
2019-01-05T05:30:40.805Z,3.27
2019-01-05T05:32:13.316Z,6.10
2019-01-05T05:33:45.601Z,3.92
2019-01-05T05:34:52.823Z,4.40
2019-01-05T05:36:34.680Z,5.60
2019-01-05T05:37:58.529Z,5.83
2019-01-05T05:39:07.138Z,3.80
2019-01-05T05:40:20.237Z,3.80
2019-01-05T05:41:25.077Z,4.10
2019-01-05T05:42:33.789Z,2.87
2019-01-05T05:43:51.801Z,3.60
2019-01-05T05:45:00.377Z,2.92
2019-01-05T05:45:58.810Z,8.40
2019-01-05T05:47:23.567Z,2.95
2019-01-05T05:48:29.465Z,3.20
2019-01-05T05:49:37.402Z,4.67
2019-01-05T05:50:49.771Z,3.70
2019-01-05T05:51:50.993Z,3.72
2019-01-05T05:53:13.229Z,3.37
2019-01-05T05:54:23.169Z,2.47
2019-01-05T05:55:33.288Z,2.75
2019-01-05T05:56:50.642Z,4.30
2019-01-05T05:58:09.850Z,2.90
2019-01-05T05:59:22.861Z,7.53
2019-01-05T06:00:43.696Z,3.30
2019-01-05T06:01:51.906Z,4.10
2019-01-05T06:03:11.365Z,2.58
2019-01-05T06:04:38.091Z,4.72
2019-01-05T06:05:48.900Z,3.15
2019-01-05T06:06:58.067Z,3.30
2019-01-05T06:08:21.489Z,3.47
2019-01-05T06:09:41.407Z,2.45
2019-01-05T06:10:58.040Z,3.27
2019-01-05T06:12:24.107Z,3.80
2019-01-05T06:13:37.422Z,4.17
2019-01-05T06:14:57.982Z,4.15
2019-01-05T06:16:06.365Z,6.33
2019-01-05T06:17:22.176Z,3.83
2019-01-05T06:18:25.047Z,2.67
2019-01-05T06:19:42.989Z,3.55
2019-01-05T06:20:46.068Z,2.87
2019-01-05T06:22:22.106Z,3.87
2019-01-05T06:23:22.749Z,4.40
2019-01-05T06:24:36.068Z,4.12
2019-01-05T06:25:58.242Z,2.17
2019-01-05T06:27:25.303Z,3.60
2019-01-05T06:28:44.762Z,3.87
2019-01-05T06:29:57.649Z,2.83
2019-01-05T06:31:14.126Z,3.15
2019-01-05T06:32:22.348Z,2.98
2019-01-05T06:33:36.997Z,4.15
2019-01-05T06:35:18.327Z,3.37
2019-01-05T06:36:31.219Z,2.85
2019-01-05T06:37:50.008Z,3.22
2019-01-05T06:39:07.372Z,4.70
2019-01-05T06:40:23.622Z,3.22
2019-01-05T06:41:33.587Z,3.10
2019-01-05T06:42:43.694Z,5.50
2019-01-05T06:43:54.660Z,3.30
2019-01-05T06:45:15.143Z,4.67
2019-01-05T06:46:35.447Z,5.12
2019-01-05T06:47:44.503Z,2.75
2019-01-05T06:48:43.276Z,3.95
2019-01-05T06:49:57.415Z,4.50
2019-01-05T06:51:16.678Z,6.22
2019-01-05T06:52:28.517Z,6.20
2019-01-05T06:53:44.650Z,2.30
2019-01-05T06:54:57.379Z,5.05
2019-01-05T06:55:56.422Z,3.55
2019-01-05T06:57:01.115Z,7.20
2019-01-05T06:58:17.971Z,4.53
2019-01-05T06:59:28.127Z,5.85
2019-01-05T07:00:36.754Z,4.92
2019-01-05T07:01:50.506Z,2.45
2019-01-05T07:03:11.669Z,2.67
2019-01-05T07:04:20.417Z,4.62
2019-01-05T07:05:20.120Z,2.00
2019-01-05T07:06:40.780Z,7.35
2019-01-05T07:08:01.547Z,3.50
2019-01-05T07:09:24.098Z,6.62
2019-01-05T07:10:32.375Z,3.95
2019-01-05T07:11:45.712Z,5.37
2019-01-05T07:13:06.450Z,3.33
2019-01-05T07:14:27.490Z,6.67
2019-01-05T07:15:37.082Z,6.53
2019-01-05T07:17:01.933Z,4.65
2019-01-05T07:18:12.347Z,4.72
2019-01-05T07:19:22.239Z,5.15
2019-01-05T07:20:50.640Z,4.58
2019-01-05T07:22:32.243Z,6.42
2019-01-05T07:23:50.940Z,6.08
2019-01-05T07:25:24.110Z,6.35
2019-01-05T07:26:59.030Z,5.25
2019-01-05T07:28:37.513Z,3.90
2019-01-05T07:29:47.687Z,4.58
2019-01-05T07:30:58.817Z,11.55
2019-01-05T07:32:13.092Z,4.92
2019-01-05T07:33:19.058Z,8.98
2019-01-05T07:34:27.758Z,7.37
2019-01-05T07:35:26.389Z,8.60
2019-01-05T07:36:30.001Z,6.83
2019-01-05T07:37:31.238Z,6.97
2019-01-05T07:38:47.603Z,5.30
2019-01-05T07:40:26.950Z,8.55
2019-01-05T07:41:46.996Z,6.80
2019-01-05T07:43:03.954Z,7.42
2019-01-05T07:44:32.080Z,8.68
2019-01-05T07:45:46.787Z,6.58
2019-01-05T07:46:52.415Z,4.67
2019-01-05T07:48:14.460Z,7.55
2019-01-05T07:49:24.955Z,10.70
2019-01-05T07:50:33.257Z,6.30
2019-01-05T07:51:46.347Z,9.70
2019-01-05T07:53:00.135Z,8.55
2019-01-05T07:54:05.260Z,8.88
2019-01-05T07:55:14.093Z,11.43
2019-01-05T07:56:27.374Z,6.40
2019-01-05T07:57:33.855Z,5.87
2019-01-05T07:58:54.223Z,6.67
2019-01-05T08:00:04.367Z,11.35
2019-01-05T08:01:24.809Z,18.50
2019-01-05T08:02:33.377Z,11.75
2019-01-05T08:03:44.953Z,12.30
2019-01-05T08:04:47.829Z,10.30
2019-01-05T08:06:04.402Z,8.13
2019-01-05T08:07:03.722Z,8.60
2019-01-05T08:08:04.030Z,6.80
2019-01-05T08:09:12.819Z,15.83
2019-01-05T08:10:40.652Z,16.62
2019-01-05T08:11:46.236Z,15.03
2019-01-05T08:13:12.884Z,9.50
2019-01-05T08:14:33.501Z,11.90
2019-01-05T08:15:33.157Z,11.35
2019-01-05T08:16:47.652Z,12.07
2019-01-05T08:17:56.433Z,12.15
2019-01-05T08:19:16.113Z,12.43
2019-01-05T08:20:35.129Z,15.50
2019-01-05T08:21:51.372Z,28.75
2019-01-05T08:23:00.435Z,17.30
2019-01-05T08:24:06.638Z,11.33
2019-01-05T08:25:17.913Z,11.78
2019-01-05T08:26:43.905Z,11.83
2019-01-05T08:27:53.011Z,10.93
2019-01-05T08:29:15.546Z,13.18
2019-01-05T08:30:31.278Z,14.35
2019-01-05T08:32:00.516Z,10.20
2019-01-05T08:34:55.688Z,13.30
2019-01-05T08:36:09.793Z,16.12
2019-01-05T08:37:30.306Z,15.68
2019-01-05T08:38:44.598Z,16.05
2019-01-05T08:41:28.937Z,16.73
2019-01-05T08:42:52.333Z,19.30
2019-01-05T08:44:24.701Z,16.15
2019-01-05T08:46:03.728Z,12.13
2019-01-05T08:47:13.472Z,13.50
2019-01-05T08:48:30.395Z,14.75
2019-01-05T08:49:34.000Z,14.68
2019-01-05T08:50:46.420Z,12.28
2019-01-05T08:51:54.089Z,15.32
2019-01-05T08:53:08.067Z,16.87
2019-01-05T08:54:31.390Z,17.62
2019-01-05T08:55:36.493Z,14.75
2019-01-05T08:56:49.836Z,17.87
2019-01-05T08:58:22.802Z,14.95
2019-01-05T08:59:48.452Z,14.53
2019-01-05T09:01:16.897Z,19.12
2019-01-05T09:02:37.511Z,16.20
2019-01-05T09:03:55.537Z,17.67
2019-01-05T09:05:08.785Z,10.25
2019-01-05T09:06:13.463Z,15.58
2019-01-05T09:08:56.148Z,12.98
2019-01-05T09:10:07.261Z,22.13
2019-01-05T09:11:26.925Z,13.03
2019-01-05T09:12:43.118Z,19.70
2019-01-05T09:14:12.006Z,19.37
2019-01-05T09:15:28.544Z,17.07
2019-01-05T09:16:57.327Z,11.45
2019-01-05T09:18:28.594Z,23.18
2019-01-05T09:19:41.991Z,23.73
2019-01-05T09:20:48.877Z,20.27
2019-01-05T09:22:04.710Z,22.00
2019-01-05T09:23:27.633Z,16.77
2019-01-05T09:24:40.690Z,19.10
2019-01-05T09:26:10.714Z,16.17
2019-01-05T09:27:23.177Z,17.82
2019-01-05T09:28:33.187Z,11.80
2019-01-05T09:31:29.838Z,22.17
2019-01-05T09:32:56.219Z,16.00
2019-01-05T09:34:03.444Z,16.32
2019-01-05T09:35:14.149Z,19.35
2019-01-05T09:36:24.443Z,13.45
2019-01-05T09:37:34.578Z,16.45
2019-01-05T09:38:54.143Z,18.17
2019-01-05T09:40:09.612Z,10.70
2019-01-05T09:41:19.301Z,12.98
2019-01-05T09:42:48.780Z,19.17
2019-01-05T09:44:09.086Z,14.45
2019-01-05T09:45:46.472Z,12.82
2019-01-05T09:46:57.418Z,20.55
2019-01-05T09:48:27.954Z,15.23
2019-01-05T09:49:39.227Z,14.20
2019-01-05T09:51:01.166Z,17.00
2019-01-05T09:52:23.938Z,20.30
2019-01-05T09:53:51.135Z,19.62
2019-01-05T09:55:09.497Z,20.12
2019-01-05T09:56:34.095Z,11.55
2019-01-05T09:57:50.073Z,13.38
2019-01-05T09:59:26.800Z,21.25
2019-01-05T10:01:06.061Z,11.43
2019-01-05T10:02:01.597Z,13.15
2019-01-05T10:03:22.831Z,16.80
2019-01-05T10:06:23.267Z,24.90
2019-01-05T10:07:45.183Z,16.25
2019-01-05T10:09:18.565Z,14.30
2019-01-05T10:10:49.202Z,17.80
2019-01-05T10:12:18.653Z,17.05
2019-01-05T10:13:41.791Z,7.67
2019-01-05T10:14:52.810Z,10.60
2019-01-05T10:16:01.568Z,12.85
2019-01-05T10:17:11.321Z,12.60
2019-01-05T10:18:34.853Z,13.70
2019-01-05T10:19:51.630Z,9.45
2019-01-05T10:21:00.798Z,12.05
2019-01-05T10:22:12.686Z,13.32
2019-01-05T10:23:21.923Z,10.98
2019-01-05T10:24:48.374Z,6.90
2019-01-05T10:26:09.497Z,12.63
2019-01-05T10:27:42.169Z,16.48
2019-01-05T10:28:56.753Z,10.70
2019-01-05T10:30:14.463Z,12.53
2019-01-05T10:31:44.704Z,19.32
2019-01-05T10:33:00.433Z,13.15
2019-01-05T10:34:13.638Z,18.25
2019-01-05T10:35:22.716Z,12.88
2019-01-05T10:36:38.808Z,12.20
2019-01-05T10:37:56.847Z,8.55
2019-01-05T10:38:55.540Z,13.70
2019-01-05T10:40:18.314Z,11.45
2019-01-05T10:43:05.814Z,10.93
2019-01-05T10:44:28.339Z,12.37
2019-01-05T10:45:45.709Z,20.43
2019-01-05T10:47:00.360Z,16.40
2019-01-05T10:48:17.790Z,15.70
2019-01-05T10:49:47.227Z,17.25
2019-01-05T10:50:57.477Z,15.08
2019-01-05T10:52:11.094Z,12.63
2019-01-05T10:53:47.956Z,18.60
2019-01-05T10:55:04.562Z,9.35
2019-01-05T10:56:11.889Z,10.70
2019-01-05T10:57:39.081Z,9.80
2019-01-05T10:59:00.290Z,9.65
2019-01-05T11:00:18.462Z,10.75
2019-01-05T11:02:42.942Z,9.00
2019-01-05T11:03:44.655Z,14.03
2019-01-05T11:05:10.976Z,15.35
2019-01-05T11:06:22.192Z,7.12
2019-01-05T11:07:32.451Z,12.73
2019-01-05T11:08:40.578Z,18.70
2019-01-05T11:09:54.716Z,13.53
2019-01-05T11:11:08.617Z,14.68
2019-01-05T11:12:45.429Z,12.28
2019-01-05T11:13:50.044Z,14.58
2019-01-05T11:15:04.413Z,12.35
2019-01-05T11:16:22.428Z,11.25
2019-01-05T11:17:33.371Z,15.83
2019-01-05T11:19:01.350Z,16.52
2019-01-05T11:20:15.205Z,11.50
2019-01-05T11:21:30.589Z,12.47
2019-01-05T11:22:41.082Z,17.07
2019-01-05T11:24:05.786Z,14.33
2019-01-05T11:25:15.420Z,13.10
2019-01-05T11:26:32.158Z,12.25
2019-01-05T11:29:01.754Z,9.75
2019-01-05T11:30:21.490Z,11.00
2019-01-05T11:31:30.622Z,12.45
2019-01-05T11:32:41.489Z,9.43
2019-01-05T11:33:33.962Z,10.13
2019-01-05T11:34:44.148Z,16.60
2019-01-05T11:35:56.578Z,16.17
2019-01-05T11:37:05.809Z,18.07
2019-01-05T11:38:23.834Z,15.00
2019-01-05T11:39:52.782Z,16.23
2019-01-05T11:41:03.044Z,12.40
2019-01-05T11:42:20.651Z,12.63
2019-01-05T11:43:50.589Z,14.20
2019-01-05T11:44:58.656Z,14.85
2019-01-05T11:46:34.841Z,10.08
2019-01-05T11:48:05.039Z,10.05
2019-01-05T11:49:23.257Z,15.38
2019-01-05T11:50:26.995Z,8.55
2019-01-05T11:51:49.693Z,10.88
2019-01-05T11:53:08.239Z,17.82
2019-01-05T11:54:38.866Z,12.85
2019-01-05T11:55:58.806Z,13.93
2019-01-05T11:57:09.373Z,10.53
2019-01-05T11:58:29.089Z,10.50
2019-01-05T11:59:52.211Z,13.10
2019-01-05T12:01:31.502Z,16.73
2019-01-05T12:02:42.910Z,7.60
2019-01-05T12:04:00.327Z,10.80
2019-01-05T12:05:27.014Z,14.23
2019-01-05T12:06:48.015Z,14.00
2019-01-05T12:08:12.683Z,9.38
2019-01-05T12:09:40.196Z,14.23
2019-01-05T12:12:40.733Z,8.75
2019-01-05T12:15:16.342Z,13.32
2019-01-05T12:16:33.256Z,6.30
2019-01-05T12:17:54.545Z,13.35
2019-01-05T12:19:04.279Z,9.10
2019-01-05T12:20:40.716Z,10.50
2019-01-05T12:21:44.359Z,9.18
2019-01-05T12:22:54.421Z,14.13
2019-01-05T12:24:12.003Z,11.00
2019-01-05T12:25:21.800Z,9.93
2019-01-05T12:26:32.899Z,9.83
2019-01-05T12:27:45.022Z,13.10
2019-01-05T12:29:27.571Z,10.00
2019-01-05T12:30:42.896Z,14.40
2019-01-05T12:31:55.396Z,6.92
2019-01-05T12:33:12.506Z,8.43
2019-01-05T12:34:40.470Z,11.20
2019-01-05T12:35:55.744Z,12.80
2019-01-05T12:37:29.158Z,12.63
2019-01-05T12:39:02.310Z,10.48
2019-01-05T12:40:14.814Z,13.65
2019-01-05T12:41:28.741Z,11.63
2019-01-05T12:43:43.706Z,7.53
2019-01-05T12:45:01.379Z,8.03
2019-01-05T12:46:34.921Z,16.17
2019-01-05T12:48:10.627Z,8.03
2019-01-05T12:49:36.940Z,9.25
2019-01-05T12:50:47.853Z,14.60
2019-01-05T12:52:00.514Z,12.68
2019-01-05T12:55:10.747Z,11.68
2019-01-05T12:56:24.582Z,14.53
2019-01-05T12:57:41.567Z,11.80
2019-01-05T12:58:58.752Z,15.15
2019-01-05T13:00:21.190Z,11.48
2019-01-05T13:02:09.944Z,16.07
2019-01-05T13:03:30.432Z,16.32
2019-01-05T13:04:46.504Z,13.22
2019-01-05T13:05:56.045Z,9.08
2019-01-05T13:07:08.746Z,12.73
2019-01-05T13:08:35.377Z,10.50
2019-01-05T13:09:44.977Z,15.55
2019-01-05T13:11:07.903Z,10.48
2019-01-05T13:12:23.631Z,9.65
2019-01-05T13:13:47.908Z,14.93
2019-01-05T13:15:22.550Z,13.35
2019-01-05T13:16:55.737Z,14.98
2019-01-05T13:18:25.207Z,9.40
2019-01-05T13:19:39.354Z,18.05
2019-01-05T13:21:06.488Z,10.28
2019-01-05T13:22:16.333Z,7.10
2019-01-05T13:23:41.053Z,15.35
2019-01-05T13:25:10.270Z,13.45
2019-01-05T13:26:38.096Z,12.82
2019-01-05T13:28:04.492Z,14.43
2019-01-05T13:29:36.602Z,16.60
2019-01-05T13:32:58.279Z,9.43
2019-01-05T13:34:23.209Z,17.12
2019-01-05T13:35:36.654Z,12.43
2019-01-05T13:36:38.924Z,12.13
2019-01-05T13:37:55.221Z,9.25
2019-01-05T13:39:05.410Z,12.30
2019-01-05T13:40:27.295Z,11.70
2019-01-05T13:41:31.549Z,13.20
2019-01-05T13:42:50.429Z,13.55
2019-01-05T13:43:59.980Z,12.82
2019-01-05T13:45:17.742Z,9.85
2019-01-05T13:46:45.961Z,11.78
2019-01-05T13:47:55.486Z,18.67
2019-01-05T13:48:59.188Z,11.57
2019-01-05T13:50:15.692Z,13.25
2019-01-05T13:51:48.339Z,10.13
2019-01-05T13:52:55.026Z,8.03
2019-01-05T13:53:51.893Z,15.03
2019-01-05T13:54:46.063Z,14.05
2019-01-05T13:55:40.242Z,9.48
2019-01-05T13:57:07.025Z,11.15
2019-01-05T13:58:13.139Z,12.25
2019-01-05T13:59:08.826Z,14.93
2019-01-05T14:00:00.161Z,10.82
2019-01-05T14:00:59.845Z,19.48
2019-01-05T14:01:55.220Z,11.05
2019-01-05T14:02:46.241Z,8.83
2019-01-05T14:03:38.971Z,12.93
2019-01-05T14:04:34.830Z,11.18
2019-01-05T14:05:36.720Z,11.83
2019-01-05T14:06:26.496Z,10.72
2019-01-05T14:07:20.293Z,11.30
2019-01-05T14:08:11.511Z,15.23
2019-01-05T14:09:02.652Z,11.15
2019-01-05T14:09:47.638Z,17.67
2019-01-05T14:10:49.283Z,13.68
2019-01-05T14:11:40.657Z,16.37
2019-01-05T14:12:33.333Z,10.95
2019-01-05T14:13:31.753Z,9.60
2019-01-05T14:14:33.474Z,11.08
2019-01-05T14:15:32.463Z,11.45
2019-01-05T14:16:23.631Z,15.95
2019-01-05T14:17:14.942Z,10.53
2019-01-05T14:18:07.572Z,13.38
2019-01-05T14:19:01.493Z,16.40
2019-01-05T14:19:54.073Z,10.70
2019-01-05T14:20:52.620Z,10.48
2019-01-05T14:22:03.059Z,18.75
2019-01-05T14:22:54.297Z,7.47
2019-01-05T14:24:01.855Z,10.75
2019-01-05T14:24:53.186Z,9.63
2019-01-05T14:25:44.348Z,9.53
2019-01-05T14:26:35.526Z,16.02
2019-01-05T14:27:25.652Z,9.58
2019-01-05T14:28:21.137Z,15.20
2019-01-05T14:29:18.034Z,12.40
2019-01-05T14:30:13.560Z,9.70
2019-01-05T14:31:18.254Z,10.38
2019-01-05T14:32:05.930Z,15.40
2019-01-05T14:33:01.541Z,14.50
2019-01-05T14:33:49.193Z,12.50
2019-01-05T14:34:47.847Z,11.12
2019-01-05T14:35:44.079Z,12.50
2019-01-05T14:36:35.506Z,14.73
2019-01-05T14:37:28.254Z,12.28
2019-01-05T14:38:23.798Z,13.85
2019-01-05T14:39:12.476Z,15.03
2019-01-05T14:40:12.692Z,10.72
2019-01-05T14:41:14.100Z,9.03
2019-01-05T14:41:59.542Z,11.97
2019-01-05T14:42:50.701Z,15.15
2019-01-05T14:43:41.994Z,8.30
2019-01-05T14:44:34.647Z,17.77
2019-01-05T14:45:26.354Z,12.55
2019-01-05T14:46:18.679Z,14.55
2019-01-05T14:47:15.830Z,12.45
2019-01-05T14:48:17.449Z,9.40
2019-01-05T14:49:09.568Z,13.15
2019-01-05T14:50:17.276Z,10.18
2019-01-05T14:51:08.727Z,12.70
2019-01-05T14:52:15.866Z,16.95
2019-01-05T14:53:10.029Z,10.82
2019-01-05T14:54:20.850Z,12.73
2019-01-05T14:55:11.978Z,11.22
2019-01-05T14:56:03.762Z,13.30
2019-01-05T14:56:59.956Z,8.25
2019-01-05T14:58:04.623Z,8.20
2019-01-05T14:58:55.936Z,7.33
2019-01-05T14:59:48.665Z,11.65
2019-01-05T15:00:50.439Z,9.35
2019-01-05T15:01:41.017Z,11.25
2019-01-05T15:02:39.625Z,5.83
2019-01-05T15:03:38.048Z,9.80
2019-01-05T15:04:29.381Z,16.02
2019-01-05T15:05:31.755Z,10.08
2019-01-05T15:06:23.644Z,11.48
2019-01-05T15:07:18.376Z,11.85
2019-01-05T15:08:09.456Z,16.87
2019-01-05T15:09:00.597Z,13.45
2019-01-05T15:09:52.153Z,14.25
2019-01-05T15:10:43.733Z,12.73
2019-01-05T15:11:35.076Z,9.43
2019-01-05T15:12:39.675Z,8.28
2019-01-05T15:13:31.423Z,13.83
2019-01-05T15:14:31.203Z,16.77
2019-01-05T15:15:24.065Z,17.17
2019-01-05T15:16:31.833Z,22.93
2019-01-05T15:17:27.377Z,127.12
2019-01-05T15:18:18.718Z,288.37
2019-01-05T15:19:11.377Z,74.95
2019-01-05T15:20:03.274Z,68.78
2019-01-05T15:21:01.562Z,34.88
2019-01-05T15:21:54.304Z,101.25
2019-01-05T15:22:39.529Z,106.07
2019-01-05T15:23:39.130Z,205.87
2019-01-05T15:24:41.699Z,51.40
2019-01-05T15:25:43.846Z,63.20
2019-01-05T15:26:35.366Z,31.42
2019-01-05T15:27:26.325Z,90.85
2019-01-05T15:28:20.655Z,49.73
2019-01-05T15:29:13.304Z,43.08
2019-01-05T15:30:12.679Z,56.50
2019-01-05T15:31:03.687Z,67.03